sensor_id;sensor_type;location;lat;lon;timestamp;temperature;humidity
75442;DHT22;64019;48.312;14.226;2024-01-15T00:00:01;-3.70;99.90
75442;DHT22;64019;48.312;14.226;2024-01-15T00:02:26;-3.60;99.90
75442;DHT22;64019;48.312;14.226;2024-01-15T00:04:52;-3.70;99.90
75442;DHT22;64019;48.312;14.226;2024-01-15T00:07:18;-3.70;99.90
75442;DHT22;64019;48.312;14.226;2024-01-15T00:09:43;-3.80;99.90
75442;DHT22;64019;48.312;14.226;2024-01-15T00:12:09;-3.80;99.90
75442;DHT22;64019;48.312;14.226;2024-01-15T00:14:35;-3.80;99.90
75442;DHT22;64019;48.312;14.226;2024-01-15T00:17:01;-3.70;99.90
75442;DHT22;64019;48.312;14.226;2024-01-15T00:19:26;-3.60;99.90
75442;DHT22;64019;48.312;14.226;2024-01-15T00:21:53;-3.60;99.90
75442;DHT22;64019;48.312;14.226;2024-01-15T00:24:18;-3.60;99.90
75442;DHT22;64019;48.312;14.226;2024-01-15T00:26:44;-3.70;99.90
75442;DHT22;64019;48.312;14.226;2024-01-15T00:29:10;-3.60;99.90
75442;DHT22;64019;48.312;14.226;2024-01-15T00:31:36;-3.60;99.90
75442;DHT22;64019;48.312;14.226;2024-01-15T00:34:02;-3.60;99.90
75442;DHT22;64019;48.312;14.226;2024-01-15T00:36:27;-3.60;99.90
75442;DHT22;64019;48.312;14.226;2024-01-15T00:38:54;-3.50;99.90
75442;DHT22;64019;48.312;14.226;2024-01-15T00:41:20;-3.50;99.90
75442;DHT22;64019;48.312;14.226;2024-01-15T00:43:47;-3.40;99.90
75442;DHT22;64019;48.312;14.226;2024-01-15T00:46:14;-3.40;99.90
75442;DHT22;64019;48.312;14.226;2024-01-15T00:48:40;-3.40;99.90
75442;DHT22;64019;48.312;14.226;2024-01-15T00:51:06;-3.40;99.90
75442;DHT22;64019;48.312;14.226;2024-01-15T00:53:32;-3.40;99.90
75442;DHT22;64019;48.312;14.226;2024-01-15T00:55:58;-3.30;99.90
75442;DHT22;64019;48.312;14.226;2024-01-15T00:58:23;-3.30;99.90
75442;DHT22;64019;48.312;14.226;2024-01-15T01:00:49;-3.30;99.90
75442;DHT22;64019;48.312;14.226;2024-01-15T01:03:15;-3.30;99.90
75442;DHT22;64019;48.312;14.226;2024-01-15T01:05:41;-3.30;99.90
75442;DHT22;64019;48.312;14.226;2024-01-15T01:08:06;-3.30;99.90
75442;DHT22;64019;48.312;14.226;2024-01-15T01:10:32;-3.30;99.90
75442;DHT22;64019;48.312;14.226;2024-01-15T01:12:58;-3.30;99.90
75442;DHT22;64019;48.312;14.226;2024-01-15T01:15:23;-3.20;99.90
75442;DHT22;64019;48.312;14.226;2024-01-15T01:17:50;-3.20;99.90
75442;DHT22;64019;48.312;14.226;2024-01-15T01:20:16;-3.30;99.90
75442;DHT22;64019;48.312;14.226;2024-01-15T01:22:41;-3.30;99.90
75442;DHT22;64019;48.312;14.226;2024-01-15T01:25:07;-3.30;99.90
75442;DHT22;64019;48.312;14.226;2024-01-15T01:27:35;-3.40;99.90
75442;DHT22;64019;48.312;14.226;2024-01-15T01:30:01;-3.40;99.90
75442;DHT22;64019;48.312;14.226;2024-01-15T01:32:27;-3.40;99.90
75442;DHT22;64019;48.312;14.226;2024-01-15T01:34:52;-3.50;99.90
75442;DHT22;64019;48.312;14.226;2024-01-15T01:37:18;-3.60;99.90
75442;DHT22;64019;48.312;14.226;2024-01-15T01:39:44;-3.60;99.90
75442;DHT22;64019;48.312;14.226;2024-01-15T01:42:10;-3.70;99.90
75442;DHT22;64019;48.312;14.226;2024-01-15T01:44:36;-3.70;99.90
75442;DHT22;64019;48.312;14.226;2024-01-15T01:47:02;-3.80;99.90
75442;DHT22;64019;48.312;14.226;2024-01-15T01:49:29;-3.90;99.90
75442;DHT22;64019;48.312;14.226;2024-01-15T01:51:59;-4.00;99.90
75442;DHT22;64019;48.312;14.226;2024-01-15T01:54:28;-4.00;99.90
75442;DHT22;64019;48.312;14.226;2024-01-15T01:56:54;-4.10;99.90
75442;DHT22;64019;48.312;14.226;2024-01-15T01:59:21;-4.20;99.90
75442;DHT22;64019;48.312;14.226;2024-01-15T02:01:49;-4.20;99.90
75442;DHT22;64019;48.312;14.226;2024-01-15T02:04:16;-4.30;99.90
75442;DHT22;64019;48.312;14.226;2024-01-15T02:06:42;-4.30;99.90
75442;DHT22;64019;48.312;14.226;2024-01-15T02:09:08;-4.30;99.90
75442;DHT22;64019;48.312;14.226;2024-01-15T02:11:35;-4.40;99.90
75442;DHT22;64019;48.312;14.226;2024-01-15T02:14:01;-4.40;99.90
75442;DHT22;64019;48.312;14.226;2024-01-15T02:16:28;-4.40;99.90
75442;DHT22;64019;48.312;14.226;2024-01-15T02:18:53;-4.30;99.90
75442;DHT22;64019;48.312;14.226;2024-01-15T02:21:19;-4.30;99.90
75442;DHT22;64019;48.312;14.226;2024-01-15T02:23:45;-4.20;99.90
75442;DHT22;64019;48.312;14.226;2024-01-15T02:26:10;-4.20;99.90
75442;DHT22;64019;48.312;14.226;2024-01-15T02:28:36;-4.20;99.90
75442;DHT22;64019;48.312;14.226;2024-01-15T02:31:02;-4.20;99.90
75442;DHT22;64019;48.312;14.226;2024-01-15T02:33:28;-4.30;99.90
75442;DHT22;64019;48.312;14.226;2024-01-15T02:35:54;-4.30;99.90
75442;DHT22;64019;48.312;14.226;2024-01-15T02:38:19;-4.30;99.90
75442;DHT22;64019;48.312;14.226;2024-01-15T02:40:45;-4.40;99.90
75442;DHT22;64019;48.312;14.226;2024-01-15T02:43:11;-4.30;99.90
75442;DHT22;64019;48.312;14.226;2024-01-15T02:45:38;-4.30;99.90
75442;DHT22;64019;48.312;14.226;2024-01-15T02:48:04;-4.30;99.90
75442;DHT22;64019;48.312;14.226;2024-01-15T02:50:30;-4.20;99.90
75442;DHT22;64019;48.312;14.226;2024-01-15T02:52:56;-4.20;99.90
75442;DHT22;64019;48.312;14.226;2024-01-15T02:55:22;-4.10;99.90
75442;DHT22;64019;48.312;14.226;2024-01-15T02:57:47;-4.10;99.90
75442;DHT22;64019;48.312;14.226;2024-01-15T03:00:13;-4.10;99.90
75442;DHT22;64019;48.312;14.226;2024-01-15T03:02:40;-4.10;99.90
75442;DHT22;64019;48.312;14.226;2024-01-15T03:05:06;-4.00;99.90
75442;DHT22;64019;48.312;14.226;2024-01-15T03:07:33;-3.90;99.90
75442;DHT22;64019;48.312;14.226;2024-01-15T03:09:59;-3.90;99.90
75442;DHT22;64019;48.312;14.226;2024-01-15T03:12:25;-3.90;99.90
75442;DHT22;64019;48.312;14.226;2024-01-15T03:14:50;-3.80;99.90
75442;DHT22;64019;48.312;14.226;2024-01-15T03:17:16;-3.80;99.90
75442;DHT22;64019;48.312;14.226;2024-01-15T03:19:42;-3.80;99.90
75442;DHT22;64019;48.312;14.226;2024-01-15T03:22:08;-3.80;99.90
75442;DHT22;64019;48.312;14.226;2024-01-15T03:24:34;-3.80;99.90
75442;DHT22;64019;48.312;14.226;2024-01-15T03:27:01;-3.80;99.90
75442;DHT22;64019;48.312;14.226;2024-01-15T03:29:27;-3.90;99.90
75442;DHT22;64019;48.312;14.226;2024-01-15T03:31:53;-3.80;99.90
75442;DHT22;64019;48.312;14.226;2024-01-15T03:34:18;-3.80;99.90
75442;DHT22;64019;48.312;14.226;2024-01-15T03:36:44;-3.70;99.90
75442;DHT22;64019;48.312;14.226;2024-01-15T03:39:10;-3.60;99.90
75442;DHT22;64019;48.312;14.226;2024-01-15T03:41:35;-3.60;99.90
75442;DHT22;64019;48.312;14.226;2024-01-15T03:44:01;-3.50;99.90
75442;DHT22;64019;48.312;14.226;2024-01-15T03:46:27;-3.40;99.90
75442;DHT22;64019;48.312;14.226;2024-01-15T03:48:53;-3.30;99.90
75442;DHT22;64019;48.312;14.226;2024-01-15T03:51:19;-3.30;99.90
75442;DHT22;64019;48.312;14.226;2024-01-15T03:53:45;-3.30;99.90
75442;DHT22;64019;48.312;14.226;2024-01-15T03:56:10;-3.30;99.90
75442;DHT22;64019;48.312;14.226;2024-01-15T03:58:36;-3.20;99.90
75442;DHT22;64019;48.312;14.226;2024-01-15T04:01:02;-3.20;99.90
75442;DHT22;64019;48.312;14.226;2024-01-15T04:03:28;-3.20;99.90
75442;DHT22;64019;48.312;14.226;2024-01-15T04:05:54;-3.00;99.90
75442;DHT22;64019;48.312;14.226;2024-01-15T04:08:20;-2.90;99.90
75442;DHT22;64019;48.312;14.226;2024-01-15T04:10:45;-2.70;99.90
75442;DHT22;64019;48.312;14.226;2024-01-15T04:13:11;-2.50;99.90
75442;DHT22;64019;48.312;14.226;2024-01-15T04:15:37;-2.40;99.90
75442;DHT22;64019;48.312;14.226;2024-01-15T04:18:03;-2.30;99.90
75442;DHT22;64019;48.312;14.226;2024-01-15T04:20:29;-2.20;99.90
75442;DHT22;64019;48.312;14.226;2024-01-15T04:22:55;-2.10;99.90
75442;DHT22;64019;48.312;14.226;2024-01-15T04:25:20;-2.10;99.90
75442;DHT22;64019;48.312;14.226;2024-01-15T04:27:46;-2.00;99.90
75442;DHT22;64019;48.312;14.226;2024-01-15T04:30:12;-2.00;99.90
75442;DHT22;64019;48.312;14.226;2024-01-15T04:32:38;-2.00;99.90
75442;DHT22;64019;48.312;14.226;2024-01-15T04:35:04;-2.00;99.90
75442;DHT22;64019;48.312;14.226;2024-01-15T04:37:29;-1.90;99.90
75442;DHT22;64019;48.312;14.226;2024-01-15T04:39:55;-1.90;99.90
75442;DHT22;64019;48.312;14.226;2024-01-15T04:42:23;-1.80;99.90
75442;DHT22;64019;48.312;14.226;2024-01-15T04:44:49;-1.90;99.90
75442;DHT22;64019;48.312;14.226;2024-01-15T04:47:15;-1.90;99.90
75442;DHT22;64019;48.312;14.226;2024-01-15T04:49:40;-1.80;99.90
75442;DHT22;64019;48.312;14.226;2024-01-15T04:52:06;-1.80;99.90
75442;DHT22;64019;48.312;14.226;2024-01-15T04:54:32;-1.80;99.90
75442;DHT22;64019;48.312;14.226;2024-01-15T04:56:58;-1.80;99.90
75442;DHT22;64019;48.312;14.226;2024-01-15T04:59:23;-1.80;99.90
75442;DHT22;64019;48.312;14.226;2024-01-15T05:01:49;-1.70;99.90
75442;DHT22;64019;48.312;14.226;2024-01-15T05:04:15;-1.70;99.90
75442;DHT22;64019;48.312;14.226;2024-01-15T05:06:41;-1.70;99.90
75442;DHT22;64019;48.312;14.226;2024-01-15T05:09:07;-1.80;99.90
75442;DHT22;64019;48.312;14.226;2024-01-15T05:11:32;-1.70;99.90
75442;DHT22;64019;48.312;14.226;2024-01-15T05:13:58;-1.70;99.90
75442;DHT22;64019;48.312;14.226;2024-01-15T05:16:24;-1.70;99.90
75442;DHT22;64019;48.312;14.226;2024-01-15T05:18:49;-1.70;99.90
75442;DHT22;64019;48.312;14.226;2024-01-15T05:21:16;-1.70;99.90
75442;DHT22;64019;48.312;14.226;2024-01-15T05:23:41;-1.70;99.90
75442;DHT22;64019;48.312;14.226;2024-01-15T05:26:07;-1.70;99.90
75442;DHT22;64019;48.312;14.226;2024-01-15T05:28:34;-1.70;99.90
75442;DHT22;64019;48.312;14.226;2024-01-15T05:31:00;-1.70;99.90
75442;DHT22;64019;48.312;14.226;2024-01-15T05:33:26;-1.70;99.90
75442;DHT22;64019;48.312;14.226;2024-01-15T05:35:52;-1.70;99.90
75442;DHT22;64019;48.312;14.226;2024-01-15T05:38:19;-1.70;99.90
75442;DHT22;64019;48.312;14.226;2024-01-15T05:40:45;-1.70;99.90
75442;DHT22;64019;48.312;14.226;2024-01-15T05:43:10;-1.70;99.90
75442;DHT22;64019;48.312;14.226;2024-01-15T05:45:38;-1.60;99.90
75442;DHT22;64019;48.312;14.226;2024-01-15T05:48:04;-1.60;99.90
75442;DHT22;64019;48.312;14.226;2024-01-15T05:50:30;-1.60;99.90
75442;DHT22;64019;48.312;14.226;2024-01-15T05:52:55;-1.60;99.90
75442;DHT22;64019;48.312;14.226;2024-01-15T05:55:21;-1.60;99.90
75442;DHT22;64019;48.312;14.226;2024-01-15T05:57:47;-1.60;99.90
75442;DHT22;64019;48.312;14.226;2024-01-15T06:00:13;-1.60;99.90
75442;DHT22;64019;48.312;14.226;2024-01-15T06:02:39;-1.60;99.90
75442;DHT22;64019;48.312;14.226;2024-01-15T06:05:05;-1.60;99.90
75442;DHT22;64019;48.312;14.226;2024-01-15T06:07:33;-1.60;99.90
75442;DHT22;64019;48.312;14.226;2024-01-15T06:09:59;-1.50;99.90
75442;DHT22;64019;48.312;14.226;2024-01-15T06:12:24;-1.50;99.90
75442;DHT22;64019;48.312;14.226;2024-01-15T06:14:50;-1.50;99.90
75442;DHT22;64019;48.312;14.226;2024-01-15T06:17:16;-1.50;99.90
75442;DHT22;64019;48.312;14.226;2024-01-15T06:19:42;-1.50;99.90
75442;DHT22;64019;48.312;14.226;2024-01-15T06:22:08;-1.60;99.90
75442;DHT22;64019;48.312;14.226;2024-01-15T06:24:33;-1.50;99.90
75442;DHT22;64019;48.312;14.226;2024-01-15T06:26:59;-1.50;99.90
75442;DHT22;64019;48.312;14.226;2024-01-15T06:29:26;-1.50;99.90
75442;DHT22;64019;48.312;14.226;2024-01-15T06:31:52;-1.50;99.90
75442;DHT22;64019;48.312;14.226;2024-01-15T06:34:18;-1.50;99.90
75442;DHT22;64019;48.312;14.226;2024-01-15T06:36:44;-1.50;99.90
75442;DHT22;64019;48.312;14.226;2024-01-15T06:39:10;-1.50;99.90
75442;DHT22;64019;48.312;14.226;2024-01-15T06:41:36;-1.40;99.90
75442;DHT22;64019;48.312;14.226;2024-01-15T06:44:12;-1.40;99.90
75442;DHT22;64019;48.312;14.226;2024-01-15T06:46:45;-1.40;99.90
75442;DHT22;64019;48.312;14.226;2024-01-15T06:49:11;-1.40;99.90
75442;DHT22;64019;48.312;14.226;2024-01-15T06:51:37;-1.40;99.90
75442;DHT22;64019;48.312;14.226;2024-01-15T06:54:03;-1.30;99.90
75442;DHT22;64019;48.312;14.226;2024-01-15T06:56:29;-1.40;99.90
75442;DHT22;64019;48.312;14.226;2024-01-15T06:58:55;-1.40;99.90
75442;DHT22;64019;48.312;14.226;2024-01-15T07:01:21;-1.40;99.90
75442;DHT22;64019;48.312;14.226;2024-01-15T07:03:46;-1.30;99.90
75442;DHT22;64019;48.312;14.226;2024-01-15T07:06:12;-1.40;99.90
75442;DHT22;64019;48.312;14.226;2024-01-15T07:08:39;-1.40;99.90
75442;DHT22;64019;48.312;14.226;2024-01-15T07:11:05;-1.40;99.90
75442;DHT22;64019;48.312;14.226;2024-01-15T07:13:31;-1.40;99.90
75442;DHT22;64019;48.312;14.226;2024-01-15T07:15:57;-1.40;99.90
75442;DHT22;64019;48.312;14.226;2024-01-15T07:18:23;-1.40;99.90
75442;DHT22;64019;48.312;14.226;2024-01-15T07:20:49;-1.40;99.90
75442;DHT22;64019;48.312;14.226;2024-01-15T07:23:15;-1.30;99.90
75442;DHT22;64019;48.312;14.226;2024-01-15T07:25:41;-1.30;99.90
75442;DHT22;64019;48.312;14.226;2024-01-15T07:28:07;-1.30;99.90
75442;DHT22;64019;48.312;14.226;2024-01-15T07:30:33;-1.20;99.90
75442;DHT22;64019;48.312;14.226;2024-01-15T07:32:58;-1.20;99.90
75442;DHT22;64019;48.312;14.226;2024-01-15T07:35:24;-1.20;99.90
75442;DHT22;64019;48.312;14.226;2024-01-15T07:37:50;-1.20;99.90
75442;DHT22;64019;48.312;14.226;2024-01-15T07:40:16;-1.20;99.90
75442;DHT22;64019;48.312;14.226;2024-01-15T07:42:41;-1.20;99.90
75442;DHT22;64019;48.312;14.226;2024-01-15T07:45:08;-1.10;99.90
75442;DHT22;64019;48.312;14.226;2024-01-15T07:47:34;-1.10;99.90
75442;DHT22;64019;48.312;14.226;2024-01-15T07:50:00;-1.00;99.90
75442;DHT22;64019;48.312;14.226;2024-01-15T07:52:26;-1.00;99.90
75442;DHT22;64019;48.312;14.226;2024-01-15T07:54:52;-1.00;99.90
75442;DHT22;64019;48.312;14.226;2024-01-15T07:57:17;-1.00;99.90
75442;DHT22;64019;48.312;14.226;2024-01-15T07:59:43;-0.90;99.90
75442;DHT22;64019;48.312;14.226;2024-01-15T08:02:09;-0.90;99.90
75442;DHT22;64019;48.312;14.226;2024-01-15T08:04:37;-0.90;99.90
75442;DHT22;64019;48.312;14.226;2024-01-15T08:07:04;-0.80;99.90
75442;DHT22;64019;48.312;14.226;2024-01-15T08:09:31;-0.80;99.90
75442;DHT22;64019;48.312;14.226;2024-01-15T08:11:56;-0.70;99.90
75442;DHT22;64019;48.312;14.226;2024-01-15T08:14:22;-0.70;99.90
75442;DHT22;64019;48.312;14.226;2024-01-15T08:16:48;-0.80;99.90
75442;DHT22;64019;48.312;14.226;2024-01-15T08:19:14;-0.80;99.90
75442;DHT22;64019;48.312;14.226;2024-01-15T08:21:40;-0.80;99.90
75442;DHT22;64019;48.312;14.226;2024-01-15T08:24:05;-0.80;99.90
75442;DHT22;64019;48.312;14.226;2024-01-15T08:26:31;-0.80;99.90
75442;DHT22;64019;48.312;14.226;2024-01-15T08:29:00;-0.80;99.90
75442;DHT22;64019;48.312;14.226;2024-01-15T08:31:26;-0.80;99.90
75442;DHT22;64019;48.312;14.226;2024-01-15T08:33:53;-0.70;99.90
75442;DHT22;64019;48.312;14.226;2024-01-15T08:36:19;-0.80;99.90
75442;DHT22;64019;48.312;14.226;2024-01-15T08:38:44;-0.80;99.90
75442;DHT22;64019;48.312;14.226;2024-01-15T08:41:10;-0.70;99.90
75442;DHT22;64019;48.312;14.226;2024-01-15T08:43:36;-0.70;99.90
75442;DHT22;64019;48.312;14.226;2024-01-15T08:46:02;-0.70;99.90
75442;DHT22;64019;48.312;14.226;2024-01-15T08:48:28;-0.70;99.90
75442;DHT22;64019;48.312;14.226;2024-01-15T08:50:54;-0.70;99.90
75442;DHT22;64019;48.312;14.226;2024-01-15T08:53:21;-0.70;99.90
75442;DHT22;64019;48.312;14.226;2024-01-15T08:55:46;-0.70;99.90
75442;DHT22;64019;48.312;14.226;2024-01-15T08:58:13;-0.70;99.90
75442;DHT22;64019;48.312;14.226;2024-01-15T09:00:39;-0.80;99.90
75442;DHT22;64019;48.312;14.226;2024-01-15T09:03:05;-0.90;99.90
75442;DHT22;64019;48.312;14.226;2024-01-15T09:05:30;-0.90;99.90
75442;DHT22;64019;48.312;14.226;2024-01-15T09:07:56;-0.90;99.90
75442;DHT22;64019;48.312;14.226;2024-01-15T09:10:22;-1.00;99.90
75442;DHT22;64019;48.312;14.226;2024-01-15T09:12:48;-1.00;99.90
75442;DHT22;64019;48.312;14.226;2024-01-15T09:15:14;-1.00;99.90
75442;DHT22;64019;48.312;14.226;2024-01-15T09:17:40;-1.00;99.90
75442;DHT22;64019;48.312;14.226;2024-01-15T09:20:07;-1.10;99.90
75442;DHT22;64019;48.312;14.226;2024-01-15T09:22:33;-1.20;99.90
75442;DHT22;64019;48.312;14.226;2024-01-15T09:24:59;-1.10;99.90
75442;DHT22;64019;48.312;14.226;2024-01-15T09:27:25;-1.10;99.90
75442;DHT22;64019;48.312;14.226;2024-01-15T09:29:54;-1.10;99.90
75442;DHT22;64019;48.312;14.226;2024-01-15T09:32:20;-1.10;99.90
75442;DHT22;64019;48.312;14.226;2024-01-15T09:34:48;-1.10;99.90
75442;DHT22;64019;48.312;14.226;2024-01-15T09:37:15;-1.10;99.90
75442;DHT22;64019;48.312;14.226;2024-01-15T09:39:41;-1.10;99.90
75442;DHT22;64019;48.312;14.226;2024-01-15T09:42:07;-1.10;99.90
75442;DHT22;64019;48.312;14.226;2024-01-15T09:44:33;-1.00;99.90
75442;DHT22;64019;48.312;14.226;2024-01-15T09:46:59;-1.10;99.90
75442;DHT22;64019;48.312;14.226;2024-01-15T09:49:25;-1.10;99.90
75442;DHT22;64019;48.312;14.226;2024-01-15T09:51:51;-1.00;99.90
75442;DHT22;64019;48.312;14.226;2024-01-15T09:54:17;-1.00;99.90
75442;DHT22;64019;48.312;14.226;2024-01-15T09:56:46;-1.00;99.90
75442;DHT22;64019;48.312;14.226;2024-01-15T09:59:16;-1.00;99.90
75442;DHT22;64019;48.312;14.226;2024-01-15T10:01:43;-1.00;99.90
75442;DHT22;64019;48.312;14.226;2024-01-15T10:04:10;-0.90;99.90
75442;DHT22;64019;48.312;14.226;2024-01-15T10:06:37;-0.90;99.90
75442;DHT22;64019;48.312;14.226;2024-01-15T10:09:05;-0.80;99.90
75442;DHT22;64019;48.312;14.226;2024-01-15T10:11:31;-0.70;99.90
75442;DHT22;64019;48.312;14.226;2024-01-15T10:13:57;-0.60;99.90
75442;DHT22;64019;48.312;14.226;2024-01-15T10:16:23;-0.50;99.90
75442;DHT22;64019;48.312;14.226;2024-01-15T10:18:49;-0.40;99.90
75442;DHT22;64019;48.312;14.226;2024-01-15T10:21:15;-0.40;99.90
75442;DHT22;64019;48.312;14.226;2024-01-15T10:23:41;-0.40;99.90
75442;DHT22;64019;48.312;14.226;2024-01-15T10:26:08;-0.40;99.90
75442;DHT22;64019;48.312;14.226;2024-01-15T10:28:33;-0.40;99.90
75442;DHT22;64019;48.312;14.226;2024-01-15T10:31:00;-0.30;99.90
75442;DHT22;64019;48.312;14.226;2024-01-15T10:33:26;-0.30;99.90
75442;DHT22;64019;48.312;14.226;2024-01-15T10:36:00;-0.30;99.90
75442;DHT22;64019;48.312;14.226;2024-01-15T10:38:26;-0.30;99.90
75442;DHT22;64019;48.312;14.226;2024-01-15T10:40:55;-0.20;99.90
75442;DHT22;64019;48.312;14.226;2024-01-15T10:43:22;-0.10;99.90
75442;DHT22;64019;48.312;14.226;2024-01-15T10:45:49;0.10;99.90
75442;DHT22;64019;48.312;14.226;2024-01-15T10:48:19;0.20;99.90
75442;DHT22;64019;48.312;14.226;2024-01-15T10:50:46;0.20;99.90
75442;DHT22;64019;48.312;14.226;2024-01-15T10:53:15;0.20;99.90
75442;DHT22;64019;48.312;14.226;2024-01-15T10:55:42;0.20;99.90
75442;DHT22;64019;48.312;14.226;2024-01-15T10:58:08;0.20;99.90
75442;DHT22;64019;48.312;14.226;2024-01-15T11:00:35;0.20;99.90
75442;DHT22;64019;48.312;14.226;2024-01-15T11:03:03;0.20;99.90
75442;DHT22;64019;48.312;14.226;2024-01-15T11:05:51;0.30;99.90
75442;DHT22;64019;48.312;14.226;2024-01-15T11:08:18;0.30;99.90
75442;DHT22;64019;48.312;14.226;2024-01-15T11:10:51;0.20;99.90
75442;DHT22;64019;48.312;14.226;2024-01-15T11:13:40;0.20;99.90
75442;DHT22;64019;48.312;14.226;2024-01-15T11:16:11;0.20;99.90
75442;DHT22;64019;48.312;14.226;2024-01-15T11:18:38;0.30;99.90
75442;DHT22;64019;48.312;14.226;2024-01-15T11:23:55;0.50;99.90
75442;DHT22;64019;48.312;14.226;2024-01-15T11:28:53;0.60;99.90
75442;DHT22;64019;48.312;14.226;2024-01-15T11:31:19;0.60;99.90
75442;DHT22;64019;48.312;14.226;2024-01-15T11:33:49;0.70;99.90
75442;DHT22;64019;48.312;14.226;2024-01-15T11:36:15;0.80;99.90
75442;DHT22;64019;48.312;14.226;2024-01-15T11:38:41;0.90;99.90
75442;DHT22;64019;48.312;14.226;2024-01-15T11:41:16;1.00;99.90
75442;DHT22;64019;48.312;14.226;2024-01-15T11:43:42;1.10;99.90
75442;DHT22;64019;48.312;14.226;2024-01-15T11:46:11;1.00;99.90
75442;DHT22;64019;48.312;14.226;2024-01-15T11:48:44;1.00;99.90
75442;DHT22;64019;48.312;14.226;2024-01-15T11:51:12;1.00;99.90
75442;DHT22;64019;48.312;14.226;2024-01-15T11:53:48;1.00;99.90
75442;DHT22;64019;48.312;14.226;2024-01-15T11:56:18;1.10;99.90
75442;DHT22;64019;48.312;14.226;2024-01-15T11:58:48;1.00;99.90
75442;DHT22;64019;48.312;14.226;2024-01-15T12:01:15;1.10;99.90
75442;DHT22;64019;48.312;14.226;2024-01-15T12:03:41;1.10;99.90
75442;DHT22;64019;48.312;14.226;2024-01-15T12:06:08;1.10;99.90
75442;DHT22;64019;48.312;14.226;2024-01-15T12:08:35;1.10;99.90
75442;DHT22;64019;48.312;14.226;2024-01-15T12:11:07;1.10;99.90
75442;DHT22;64019;48.312;14.226;2024-01-15T12:13:36;1.10;99.90
75442;DHT22;64019;48.312;14.226;2024-01-15T12:16:02;1.10;99.90
75442;DHT22;64019;48.312;14.226;2024-01-15T12:18:31;1.10;99.90
75442;DHT22;64019;48.312;14.226;2024-01-15T12:20:57;1.10;99.90
75442;DHT22;64019;48.312;14.226;2024-01-15T12:23:24;1.10;99.90
75442;DHT22;64019;48.312;14.226;2024-01-15T12:25:50;1.10;99.90
75442;DHT22;64019;48.312;14.226;2024-01-15T12:28:16;1.10;99.90
75442;DHT22;64019;48.312;14.226;2024-01-15T12:30:42;1.20;99.90
75442;DHT22;64019;48.312;14.226;2024-01-15T12:33:08;1.10;99.90
75442;DHT22;64019;48.312;14.226;2024-01-15T12:35:34;1.20;99.90
75442;DHT22;64019;48.312;14.226;2024-01-15T12:38:01;1.20;99.90
75442;DHT22;64019;48.312;14.226;2024-01-15T12:40:31;1.10;99.90
75442;DHT22;64019;48.312;14.226;2024-01-15T12:42:58;1.20;99.90
75442;DHT22;64019;48.312;14.226;2024-01-15T12:45:24;1.20;99.90
75442;DHT22;64019;48.312;14.226;2024-01-15T12:47:50;1.20;99.90
75442;DHT22;64019;48.312;14.226;2024-01-15T12:50:16;1.20;99.90
75442;DHT22;64019;48.312;14.226;2024-01-15T12:52:42;1.20;99.90
75442;DHT22;64019;48.312;14.226;2024-01-15T12:55:09;1.20;99.90
75442;DHT22;64019;48.312;14.226;2024-01-15T12:57:35;1.20;99.90
75442;DHT22;64019;48.312;14.226;2024-01-15T13:00:02;1.20;99.90
75442;DHT22;64019;48.312;14.226;2024-01-15T13:02:33;1.30;99.90
75442;DHT22;64019;48.312;14.226;2024-01-15T13:05:03;1.20;99.90
75442;DHT22;64019;48.312;14.226;2024-01-15T13:07:29;1.30;99.90
75442;DHT22;64019;48.312;14.226;2024-01-15T13:09:55;1.30;99.90
75442;DHT22;64019;48.312;14.226;2024-01-15T13:12:21;1.30;99.90
75442;DHT22;64019;48.312;14.226;2024-01-15T13:14:47;1.30;99.90
75442;DHT22;64019;48.312;14.226;2024-01-15T13:17:13;1.30;99.90
75442;DHT22;64019;48.312;14.226;2024-01-15T13:19:42;1.30;99.90
75442;DHT22;64019;48.312;14.226;2024-01-15T13:22:08;1.30;99.90
75442;DHT22;64019;48.312;14.226;2024-01-15T13:24:35;1.30;99.90
75442;DHT22;64019;48.312;14.226;2024-01-15T13:27:02;1.40;99.90
75442;DHT22;64019;48.312;14.226;2024-01-15T13:29:29;1.40;99.90
75442;DHT22;64019;48.312;14.226;2024-01-15T13:31:55;1.40;99.90
75442;DHT22;64019;48.312;14.226;2024-01-15T13:34:20;1.40;99.90
75442;DHT22;64019;48.312;14.226;2024-01-15T13:36:46;1.40;99.90
75442;DHT22;64019;48.312;14.226;2024-01-15T13:39:12;1.40;99.90
75442;DHT22;64019;48.312;14.226;2024-01-15T13:41:37;1.40;99.90
75442;DHT22;64019;48.312;14.226;2024-01-15T13:44:03;1.50;99.90
75442;DHT22;64019;48.312;14.226;2024-01-15T13:46:29;1.50;99.90
75442;DHT22;64019;48.312;14.226;2024-01-15T13:48:55;1.50;99.90
75442;DHT22;64019;48.312;14.226;2024-01-15T13:51:24;1.50;99.90
75442;DHT22;64019;48.312;14.226;2024-01-15T13:53:50;1.60;99.90
75442;DHT22;64019;48.312;14.226;2024-01-15T13:56:16;1.60;99.90
75442;DHT22;64019;48.312;14.226;2024-01-15T13:58:42;1.60;99.90
75442;DHT22;64019;48.312;14.226;2024-01-15T14:01:08;1.60;99.90
75442;DHT22;64019;48.312;14.226;2024-01-15T14:03:35;1.60;99.90
75442;DHT22;64019;48.312;14.226;2024-01-15T14:06:01;1.60;99.90
75442;DHT22;64019;48.312;14.226;2024-01-15T14:08:29;1.60;99.90
75442;DHT22;64019;48.312;14.226;2024-01-15T14:10:58;1.60;99.90
75442;DHT22;64019;48.312;14.226;2024-01-15T14:13:23;1.60;99.90
75442;DHT22;64019;48.312;14.226;2024-01-15T14:15:49;1.60;99.90
75442;DHT22;64019;48.312;14.226;2024-01-15T14:18:16;1.60;99.90
75442;DHT22;64019;48.312;14.226;2024-01-15T14:20:42;1.60;99.90
75442;DHT22;64019;48.312;14.226;2024-01-15T14:23:09;1.70;99.90
75442;DHT22;64019;48.312;14.226;2024-01-15T14:25:34;1.70;99.90
75442;DHT22;64019;48.312;14.226;2024-01-15T14:28:00;1.70;99.90
75442;DHT22;64019;48.312;14.226;2024-01-15T14:30:26;1.70;99.90
75442;DHT22;64019;48.312;14.226;2024-01-15T14:32:52;1.70;99.90
75442;DHT22;64019;48.312;14.226;2024-01-15T14:35:19;1.60;99.90
75442;DHT22;64019;48.312;14.226;2024-01-15T14:37:44;1.60;99.90
75442;DHT22;64019;48.312;14.226;2024-01-15T14:40:11;1.60;99.90
75442;DHT22;64019;48.312;14.226;2024-01-15T14:42:37;1.60;99.90
75442;DHT22;64019;48.312;14.226;2024-01-15T14:45:04;1.60;99.90
75442;DHT22;64019;48.312;14.226;2024-01-15T14:47:40;1.60;99.90
75442;DHT22;64019;48.312;14.226;2024-01-15T14:50:07;1.60;99.90
75442;DHT22;64019;48.312;14.226;2024-01-15T14:52:33;1.60;99.90
75442;DHT22;64019;48.312;14.226;2024-01-15T14:54:59;1.60;99.90
75442;DHT22;64019;48.312;14.226;2024-01-15T14:57:25;1.50;99.90
75442;DHT22;64019;48.312;14.226;2024-01-15T14:59:51;1.50;99.90
75442;DHT22;64019;48.312;14.226;2024-01-15T15:02:17;1.50;99.90
75442;DHT22;64019;48.312;14.226;2024-01-15T15:04:43;1.50;99.90
75442;DHT22;64019;48.312;14.226;2024-01-15T15:07:09;1.50;99.90
75442;DHT22;64019;48.312;14.226;2024-01-15T15:09:36;1.50;99.90
75442;DHT22;64019;48.312;14.226;2024-01-15T15:12:04;1.60;99.90
75442;DHT22;64019;48.312;14.226;2024-01-15T15:14:30;1.60;99.90
75442;DHT22;64019;48.312;14.226;2024-01-15T15:16:57;1.60;99.90
75442;DHT22;64019;48.312;14.226;2024-01-15T15:19:23;1.50;99.90